Weather observations for the past three days for
Comox, B. C.
Imperial (Metric)
Date Time (pdt) Wind (mph) Vis. (mi.) Weather Sky Cond. Temperature (ºF) Relative Humidity Wind Chill (°F) Heat Index (°F) Pressure Precipitation (in)
Air Dwpt 6 hour altimeter (in) sea level (mb) 1 hr 3 hr 6 hr
Max. Min.
01 18:00 S 12 20.00 Mostly Cloudy FEW038 SCT060 BKN070 BKN090 68 51.8 56% 29.71 1006.2
01 17:00 SE 16 G 22 20.00 Mostly Cloudy FEW035 SCT060 BKN068 BKN095 68 53.6 60% 29.71 1006.0
01 16:00 SE 17 G 24 20.00 Mostly Cloudy SCT060 BKN070 BKN095 66.2 55.4 68% 29.71 1006.1
01 15:00 SE 20 G 25 20.00 Mostly Cloudy FEW030 SCT055 BKN068 BKN200 69.8 57.2 64% 29.72 1006.2
01 14:00 SE 16 20.00 Mostly Cloudy SCT055 BKN070 BKN120 69.8 55.4 60% 29.72 1006.5
01 13:00 SE 17 G 23 20.00 Mostly Cloudy FEW040 BKN065 BKN120 68 55.4 64% 29.73 1006.7
01 12:00 SE 21 20.00 Partly Cloudy and Breezy FEW040 SCT120 SCT220 69.8 57.2 64% 29.74 1006.9
01 11:00 SE 10 G 20 20.00 Mostly Cloudy FEW050 SCT120 BKN220 68 57.2 69% 29.75 1007.5
01 10:00 E 8 20.00 Partly Cloudy SCT012 SCT055 SCT120 SCT220 64.4 59 83% 29.76 1007.7
01 09:00 E 6 20.00 Partly Cloudy FEW015 FEW055 SCT140 SCT220 64.4 53.6 68% 29.77 1008.0
01 08:00 S 2 20.00 Partly Cloudy FEW015 FEW055 FEW140 SCT220 59 55.4 88% 29.77 1008.2
01 07:00 Calm 20.00 Partly Cloudy FEW015 FEW055 FEW140 SCT220 55.4 51.8 88% 29.77 1008.1
01 06:00 Calm 20.00 Partly Cloudy FEW015 SCT055 SCT140 55.4 51.8 88% 29.76 1007.9
01 04:00 Calm 20.00 Mostly Cloudy FEW060 BKN140 57.2 53.6 88% 29.77 1008.2
01 03:00 W 2 20.00 Mostly Cloudy FEW090 BKN140 BKN220 59 53.6 82% 29.78 1008.4
01 02:00 W 3 20.00 Mostly Cloudy BKN140 BKN220 59 53.6 82% 29.77 1008.3
01 01:00 W 3 20.00 Mostly Cloudy BKN140 BKN220 59 51.8 77% 29.77 1008.3
01 00:00 W 5 20.00 A Few Clouds FEW150 FEW220 60.8 53.6 77% 29.78 1008.6
31 23:00 W 3 20.00 Partly Cloudy FEW150 SCT220 60.8 53.6 77% 29.79 1008.9
31 21:00 SW 3 20.00 Mostly Cloudy BKN150 BKN250 62.6 53.6 73% 29.81 1009.4
31 19:00 NW 6 20.00 Mostly Cloudy FEW045 FEW170 BKN250 69.8 51.8 53% 29.82 1009.8
31 18:00 NW 7 20.00 Overcast FEW045 FEW140 OVC250 69.8 53.6 57% 29.83 1010.3
31 17:00 N 5 20.00 Overcast FEW040 FEW140 OVC250 68 50 53% 29.86 1011.2
31 16:00 NE 6 20.00 Overcast FEW040 FEW180 OVC250 68 51.8 56% 29.88 1011.8
31 15:00 NE 7 20.00 Overcast FEW040 FEW180 OVC250 68 53.6 60% 29.9 1012.5
31 14:00 NE 7 20.00 Mostly Cloudy FEW035 SCT180 BKN220 66.2 53.6 64% 29.91 1013.0
31 13:00 N 7 20.00 Mostly Cloudy FEW030 SCT160 BKN220 64.4 53.6 68% 29.93 1013.5
31 12:00 N 8 20.00 Mostly Cloudy FEW030 SCT180 BKN200 66.2 57.2 73% 29.95 1014.1
31 11:00 N 7 20.00 Mostly Cloudy FEW020 SCT040 BKN200 64.4 57.2 78% 29.96 1014.6
31 10:00 NE 7 20.00 Mostly Cloudy FEW019 SCT040 BKN200 64.4 57.2 78% 29.96 1014.6
31 08:00 NW 2 20.00 Mostly Cloudy FEW010 BKN040 BKN210 59 55.4 88% 29.98 1015.2
31 07:00 W 2 20.00 Overcast FEW008 BKN040 OVC210 59 55.4 88% 29.98 1015.3
31 06:00 NW 2 20.00 Mostly Cloudy FEW015 BKN040 BKN080 59 55.4 88% 29.99 1015.6
31 05:00 NW 3 20.00 Overcast BKN042 OVC080 59 53.6 82% 30 1015.9
31 04:00 NW 5 20.00 Overcast BKN042 OVC080 59 53.6 82% 30 1016.1
31 03:00 NW 2 20.00 Overcast FEW020 BKN042 OVC080 57.2 53.6 88% 30.02 1016.6
31 01:00 NW 3 20.00 Overcast FEW020 BKN041 OVC060 57.2 53.6 88% 30.05 1017.7
31 00:00 NW 2 20.00 Overcast FEW029 BKN060 BKN170 OVC200 57.2 53.6 88% 30.06 1017.9
30 23:00 Calm 20.00 Overcast BKN029 OVC057 59 55.4 88% 30.06 1018.1
30 22:00 Calm 20.00 Overcast OVC027 60.8 55.4 83% 30.07 1018.4
30 21:00 SE 3 20.00 Overcast BKN024 OVC055 60.8 55.4 83% 30.08 1018.6
30 20:00 Calm 20.00 Overcast FEW014 BKN020 OVC054 60.8 55.4 83% 30.08 1018.5
30 19:00 E 5 20.00 Overcast FEW014 OVC020 60.8 55.4 83% 30.08 1018.7
30 18:00 E 3 20.00 Overcast FEW015 SCT025 OVC045 60.8 55.4 83% 30.09 1018.9
30 17:00 E 5 20.00 Overcast FEW015 BKN025 OVC042 60.8 55.4 83% 30.09 1019.1
30 16:00 E 6 15.00 Light Drizzle FEW012 BKN021 OVC030 60.8 55.4 83% 30.11 1019.6
30 15:00 N 6 10.00 Light Drizzle FEW008 SCT015 OVC022 60.8 55.4 83% 30.12 1020.1
30 14:00 E 2 20.00 Overcast FEW008 BKN023 OVC038 60.8 55.4 83% 30.12 1019.9
30 12:00 E 3 20.00 Overcast FEW008 SCT019 OVC045 59 55.4 88% 30.11 1019.6
30 10:00 NW 2 20.00 Light Showers Rain FEW012 BKN025 OVC048 57.2 55.4 94% 30.1 1019.4
30 09:00 W 3 20.00 Light Showers Rain FEW012 SCT042 SCT060 BKN070 OVC090 57.2 55.4 94% 30.1 1019.3
30 08:00 NW 3 6.00 Light Showers Rain Fog/Mist FEW012 BKN042 OVC060 55.4 53.6 94% 30.1 1019.3
30 07:00 NW 6 5.00 Light Showers Rain Fog/Mist OVC032 55.4 53.6 94% 30.09 1019.1
30 06:00 NW 6 15.00 Light Showers Rain OVC037 57.2 51.8 82% 30.09 1018.9
30 05:00 NW 3 15.00 Light Showers Rain OVC045 57.2 53.6 88% 30.08 1018.7
30 04:00 W 2 20.00 Light Showers Rain BKN048 OVC080 59 51.8 77% 30.08 1018.6
30 03:00 W 3 20.00 Light Showers Rain SCT055 OVC110 59 51.8 77% 30.07 1018.3
30 02:00 NW 3 20.00 Overcast SCT050 OVC110 59 50 72% 30.07 1018.3
30 01:00 NW 3 20.00 Overcast BKN055 OVC120 60.8 51.8 72% 30.07 1018.4
29 22:00 NW 3 20.00 Overcast BKN055 OVC075 62.6 50 64% 30.06 1018.0
29 20:00 W 5 20.00 Mostly Cloudy BKN053 BKN075 BKN250 64.4 48.2 56% 30.03 1017.0
29 19:00 NW 5 20.00 Mostly Cloudy BKN053 BKN250 66.2 46.4 49% 30.03 1016.9
Date Time (pdt) Wind (mph) Vis. (mi.) Weather Sky Cond. Air Dwpt Max. Min. Relative Humidity Wind Chill (°F) Heat Index (°F) altimeter (in) sea level (mb) 1 hr 3 hr 6 hr
6 hour
Temperature (ºF) Pressure Precipitation (in)